sensor_id;sensor_type;location;lat;lon;timestamp;temperature;humidity
23385;DHT22;11865;45.394;10.978;2022-09-20T02:17:29;16.30;87.80
23385;DHT22;11865;45.394;10.978;2022-09-20T02:39:21;16.10;91.20
23385;DHT22;11865;45.394;10.978;2022-09-20T02:47:21;16.10;91.50
23385;DHT22;11865;45.394;10.978;2022-09-20T02:58:45;15.90;92.00
23385;DHT22;11865;45.394;10.978;2022-09-20T03:04:13;15.90;92.30
23385;DHT22;11865;45.394;10.978;2022-09-20T03:23:29;15.90;92.70
23385;DHT22;11865;45.394;10.978;2022-09-20T03:26:25;15.90;92.60
23385;DHT22;11865;45.394;10.978;2022-09-20T03:42:50;15.80;92.80
23385;DHT22;11865;45.394;10.978;2022-09-20T03:54:01;15.80;92.50
23385;DHT22;11865;45.394;10.978;2022-09-20T04:04:50;15.70;92.40
23385;DHT22;11865;45.394;10.978;2022-09-20T04:10:22;15.70;92.30
23385;DHT22;11865;45.394;10.978;2022-09-20T04:13:36;15.60;92.30
23385;DHT22;11865;45.394;10.978;2022-09-20T04:18:56;15.60;91.50
23385;DHT22;11865;45.394;10.978;2022-09-20T04:21:37;15.60;91.70
23385;DHT22;11865;45.394;10.978;2022-09-20T04:27:19;15.40;92.30
23385;DHT22;11865;45.394;10.978;2022-09-20T04:30:15;15.30;92.40
23385;DHT22;11865;45.394;10.978;2022-09-20T04:32:57;15.20;92.30
23385;DHT22;11865;45.394;10.978;2022-09-20T04:35:37;15.10;92.40
23385;DHT22;11865;45.394;10.978;2022-09-20T04:38:25;15.00;92.30
23385;DHT22;11865;45.394;10.978;2022-09-20T04:53:20;14.90;91.80
23385;DHT22;11865;45.394;10.978;2022-09-20T04:59:04;14.90;93.60
23385;DHT22;11865;45.394;10.978;2022-09-20T05:02:05;14.90;92.00
23385;DHT22;11865;45.394;10.978;2022-09-20T05:11:11;14.50;94.70
23385;DHT22;11865;45.394;10.978;2022-09-20T05:13:53;14.20;95.30
23385;DHT22;11865;45.394;10.978;2022-09-20T05:16:28;14.40;92.90
23385;DHT22;11865;45.394;10.978;2022-09-20T05:19:24;14.70;91.60
23385;DHT22;11865;45.394;10.978;2022-09-20T05:30:20;14.90;91.30
23385;DHT22;11865;45.394;10.978;2022-09-20T05:33:22;14.90;91.10
23385;DHT22;11865;45.394;10.978;2022-09-20T05:38:38;15.00;91.10
23385;DHT22;11865;45.394;10.978;2022-09-20T05:41:35;15.10;93.10
23385;DHT22;11865;45.394;10.978;2022-09-20T05:44:37;15.20;92.80
23385;DHT22;11865;45.394;10.978;2022-09-20T05:47:23;15.00;93.50
23385;DHT22;11865;45.394;10.978;2022-09-20T05:50:04;15.10;93.30
23385;DHT22;11865;45.394;10.978;2022-09-20T05:58:59;14.90;93.90
23385;DHT22;11865;45.394;10.978;2022-09-20T06:01:31;14.90;94.50
23385;DHT22;11865;45.394;10.978;2022-09-20T06:04:25;14.80;93.10
23385;DHT22;11865;45.394;10.978;2022-09-20T06:07:24;15.90;91.80
23385;DHT22;11865;45.394;10.978;2022-09-20T06:13:03;17.00;86.90
23385;DHT22;11865;45.394;10.978;2022-09-20T06:15:51;18.50;83.30
23385;DHT22;11865;45.394;10.978;2022-09-20T06:18:29;19.80;78.30
23385;DHT22;11865;45.394;10.978;2022-09-20T06:23:30;21.00;74.60
23385;DHT22;11865;45.394;10.978;2022-09-20T06:26:24;21.60;72.20
23385;DHT22;11865;45.394;10.978;2022-09-20T06:28:55;21.80;70.70
23385;DHT22;11865;45.394;10.978;2022-09-20T06:31:33;22.30;69.60
23385;DHT22;11865;45.394;10.978;2022-09-20T06:34:19;22.20;69.20
23385;DHT22;11865;45.394;10.978;2022-09-20T06:36:50;22.10;68.70
23385;DHT22;11865;45.394;10.978;2022-09-20T06:40:01;23.00;68.40
23385;DHT22;11865;45.394;10.978;2022-09-20T06:42:50;22.90;66.60
23385;DHT22;11865;45.394;10.978;2022-09-20T06:45:18;22.80;66.30
23385;DHT22;11865;45.394;10.978;2022-09-20T06:47:46;21.60;66.30
23385;DHT22;11865;45.394;10.978;2022-09-20T06:50:17;22.60;66.50
23385;DHT22;11865;45.394;10.978;2022-09-20T06:52:45;21.80;65.20
23385;DHT22;11865;45.394;10.978;2022-09-20T06:55:25;20.70;66.60
23385;DHT22;11865;45.394;10.978;2022-09-20T06:57:55;20.90;68.70
23385;DHT22;11865;45.394;10.978;2022-09-20T07:00:23;21.40;68.10
23385;DHT22;11865;45.394;10.978;2022-09-20T07:02:50;21.50;69.50
23385;DHT22;11865;45.394;10.978;2022-09-20T07:05:18;22.60;66.90
23385;DHT22;11865;45.394;10.978;2022-09-20T07:07:48;21.90;67.80
23385;DHT22;11865;45.394;10.978;2022-09-20T07:10:16;20.80;68.10
23385;DHT22;11865;45.394;10.978;2022-09-20T07:12:43;20.60;70.30
23385;DHT22;11865;45.394;10.978;2022-09-20T07:15:12;21.80;68.70
23385;DHT22;11865;45.394;10.978;2022-09-20T07:17:43;21.30;67.50
23385;DHT22;11865;45.394;10.978;2022-09-20T07:20:11;20.60;70.80
23385;DHT22;11865;45.394;10.978;2022-09-20T07:22:42;20.00;73.30
23385;DHT22;11865;45.394;10.978;2022-09-20T07:25:10;20.00;74.90
23385;DHT22;11865;45.394;10.978;2022-09-20T07:27:37;19.70;73.60
23385;DHT22;11865;45.394;10.978;2022-09-20T07:30:07;19.60;73.30
23385;DHT22;11865;45.394;10.978;2022-09-20T07:32:34;19.60;73.10
23385;DHT22;11865;45.394;10.978;2022-09-20T07:35:02;19.30;73.70
23385;DHT22;11865;45.394;10.978;2022-09-20T07:37:29;19.10;74.40
23385;DHT22;11865;45.394;10.978;2022-09-20T07:40:04;19.30;75.20
23385;DHT22;11865;45.394;10.978;2022-09-20T07:42:31;19.20;73.90
23385;DHT22;11865;45.394;10.978;2022-09-20T07:44:59;19.20;73.80
23385;DHT22;11865;45.394;10.978;2022-09-20T07:47:29;19.20;74.30
23385;DHT22;11865;45.394;10.978;2022-09-20T07:50:03;19.10;74.50
23385;DHT22;11865;45.394;10.978;2022-09-20T07:52:30;19.20;74.90
23385;DHT22;11865;45.394;10.978;2022-09-20T07:54:57;19.20;75.20
23385;DHT22;11865;45.394;10.978;2022-09-20T07:57:25;19.20;75.90
23385;DHT22;11865;45.394;10.978;2022-09-20T07:59:52;19.50;75.40
23385;DHT22;11865;45.394;10.978;2022-09-20T08:02:20;19.50;75.70
23385;DHT22;11865;45.394;10.978;2022-09-20T08:04:47;19.50;76.80
23385;DHT22;11865;45.394;10.978;2022-09-20T08:07:16;19.60;76.70
23385;DHT22;11865;45.394;10.978;2022-09-20T08:09:43;19.80;77.50
23385;DHT22;11865;45.394;10.978;2022-09-20T08:12:10;19.70;77.20
23385;DHT22;11865;45.394;10.978;2022-09-20T08:15:00;20.00;77.70
23385;DHT22;11865;45.394;10.978;2022-09-20T08:17:27;19.90;77.20
23385;DHT22;11865;45.394;10.978;2022-09-20T08:19:55;20.10;79.10
23385;DHT22;11865;45.394;10.978;2022-09-20T08:22:22;20.30;79.90
23385;DHT22;11865;45.394;10.978;2022-09-20T08:24:50;20.10;77.30
23385;DHT22;11865;45.394;10.978;2022-09-20T08:27:18;20.10;78.20
23385;DHT22;11865;45.394;10.978;2022-09-20T08:29:46;20.00;78.80
23385;DHT22;11865;45.394;10.978;2022-09-20T08:32:13;20.10;79.30
23385;DHT22;11865;45.394;10.978;2022-09-20T08:34:41;20.10;79.60
23385;DHT22;11865;45.394;10.978;2022-09-20T08:37:08;20.00;81.40
23385;DHT22;11865;45.394;10.978;2022-09-20T08:39:35;19.90;79.80
23385;DHT22;11865;45.394;10.978;2022-09-20T08:42:27;20.10;80.10
23385;DHT22;11865;45.394;10.978;2022-09-20T08:45:12;20.30;80.70
23385;DHT22;11865;45.394;10.978;2022-09-20T08:47:57;20.40;81.70
23385;DHT22;11865;45.394;10.978;2022-09-20T08:50:27;20.50;81.60
23385;DHT22;11865;45.394;10.978;2022-09-20T08:52:56;20.70;81.50
23385;DHT22;11865;45.394;10.978;2022-09-20T08:55:28;20.40;80.60
23385;DHT22;11865;45.394;10.978;2022-09-20T08:58:12;20.30;81.30
23385;DHT22;11865;45.394;10.978;2022-09-20T09:00:43;20.20;81.90
23385;DHT22;11865;45.394;10.978;2022-09-20T09:03:13;20.40;80.60
23385;DHT22;11865;45.394;10.978;2022-09-20T09:05:53;20.30;79.30
23385;DHT22;11865;45.394;10.978;2022-09-20T09:08:24;20.40;79.60
23385;DHT22;11865;45.394;10.978;2022-09-20T09:10:54;20.50;80.00
23385;DHT22;11865;45.394;10.978;2022-09-20T09:14:01;20.50;79.00
23385;DHT22;11865;45.394;10.978;2022-09-20T09:16:32;20.50;80.20
23385;DHT22;11865;45.394;10.978;2022-09-20T09:19:29;20.60;81.80
23385;DHT22;11865;45.394;10.978;2022-09-20T09:22:03;20.70;80.50
23385;DHT22;11865;45.394;10.978;2022-09-20T09:24:31;20.80;80.80
23385;DHT22;11865;45.394;10.978;2022-09-20T09:27:24;20.80;80.50
23385;DHT22;11865;45.394;10.978;2022-09-20T09:29:53;20.70;81.90
23385;DHT22;11865;45.394;10.978;2022-09-20T09:32:31;20.70;81.90
23385;DHT22;11865;45.394;10.978;2022-09-20T09:35:28;20.70;82.80
23385;DHT22;11865;45.394;10.978;2022-09-20T09:38:00;20.80;83.40
23385;DHT22;11865;45.394;10.978;2022-09-20T09:40:30;20.90;81.40
23385;DHT22;11865;45.394;10.978;2022-09-20T09:43:00;20.80;80.80
23385;DHT22;11865;45.394;10.978;2022-09-20T09:45:32;20.80;80.80
23385;DHT22;11865;45.394;10.978;2022-09-20T09:48:25;21.20;82.00
23385;DHT22;11865;45.394;10.978;2022-09-20T09:51:12;21.20;82.00
23385;DHT22;11865;45.394;10.978;2022-09-20T09:53:42;20.90;83.50
23385;DHT22;11865;45.394;10.978;2022-09-20T10:04:29;21.20;80.70
23385;DHT22;11865;45.394;10.978;2022-09-20T10:07:22;21.10;80.40
23385;DHT22;11865;45.394;10.978;2022-09-20T10:10:07;21.10;81.00
23385;DHT22;11865;45.394;10.978;2022-09-20T10:15:45;21.10;80.40
23385;DHT22;11865;45.394;10.978;2022-09-20T10:24:03;21.10;82.50
23385;DHT22;11865;45.394;10.978;2022-09-20T10:40:29;21.10;81.40
23385;DHT22;11865;45.394;10.978;2022-09-20T10:49:18;21.20;79.20
23385;DHT22;11865;45.394;10.978;2022-09-20T10:54:53;21.20;83.30
23385;DHT22;11865;45.394;10.978;2022-09-20T11:03:17;21.20;84.20
23385;DHT22;11865;45.394;10.978;2022-09-20T11:08:39;21.40;81.70
23385;DHT22;11865;45.394;10.978;2022-09-20T11:11:14;21.30;80.90
23385;DHT22;11865;45.394;10.978;2022-09-20T11:13:46;21.60;80.70
23385;DHT22;11865;45.394;10.978;2022-09-20T11:16:20;21.50;81.30
23385;DHT22;11865;45.394;10.978;2022-09-20T11:19:04;21.40;82.60
23385;DHT22;11865;45.394;10.978;2022-09-20T11:21:37;21.30;82.20
23385;DHT22;11865;45.394;10.978;2022-09-20T11:24:32;21.30;83.40
23385;DHT22;11865;45.394;10.978;2022-09-20T11:27:11;21.40;82.00
23385;DHT22;11865;45.394;10.978;2022-09-20T11:38:15;21.50;80.20
23385;DHT22;11865;45.394;10.978;2022-09-20T11:40:58;21.60;81.40
23385;DHT22;11865;45.394;10.978;2022-09-20T11:43:28;21.50;81.90
23385;DHT22;11865;45.394;10.978;2022-09-20T11:46:07;21.40;82.80
23385;DHT22;11865;45.394;10.978;2022-09-20T11:48:48;21.60;81.50
23385;DHT22;11865;45.394;10.978;2022-09-20T11:56:55;21.80;83.10
23385;DHT22;11865;45.394;10.978;2022-09-20T11:59:39;21.80;82.80
23385;DHT22;11865;45.394;10.978;2022-09-20T12:02:33;21.80;83.70
23385;DHT22;11865;45.394;10.978;2022-09-20T12:05:05;21.80;83.70
23385;DHT22;11865;45.394;10.978;2022-09-20T12:07:40;22.00;83.80
23385;DHT22;11865;45.394;10.978;2022-09-20T12:10:21;22.20;80.60
23385;DHT22;11865;45.394;10.978;2022-09-20T12:12:56;22.30;84.40
23385;DHT22;11865;45.394;10.978;2022-09-20T12:15:31;22.30;82.60
23385;DHT22;11865;45.394;10.978;2022-09-20T12:28:57;22.30;84.70
23385;DHT22;11865;45.394;10.978;2022-09-20T12:36:38;22.10;86.10
23385;DHT22;11865;45.394;10.978;2022-09-20T12:55:53;21.80;83.70
23385;DHT22;11865;45.394;10.978;2022-09-20T12:58:35;22.10;84.00
23385;DHT22;11865;45.394;10.978;2022-09-20T13:09:04;22.10;80.70
23385;DHT22;11865;45.394;10.978;2022-09-20T13:19:06;21.90;83.30
23385;DHT22;11865;45.394;10.978;2022-09-20T13:24:38;21.90;82.50
23385;DHT22;11865;45.394;10.978;2022-09-20T13:27:08;21.70;84.50
23385;DHT22;11865;45.394;10.978;2022-09-20T13:29:42;21.50;87.40
23385;DHT22;11865;45.394;10.978;2022-09-20T13:32:27;21.50;87.50
23385;DHT22;11865;45.394;10.978;2022-09-20T13:37:33;21.80;85.50
23385;DHT22;11865;45.394;10.978;2022-09-20T13:40:01;21.80;83.40
23385;DHT22;11865;45.394;10.978;2022-09-20T13:42:31;21.90;82.80
23385;DHT22;11865;45.394;10.978;2022-09-20T13:45:02;21.80;80.60
23385;DHT22;11865;45.394;10.978;2022-09-20T13:47:31;21.80;84.50
23385;DHT22;11865;45.394;10.978;2022-09-20T13:50:00;21.80;81.30
23385;DHT22;11865;45.394;10.978;2022-09-20T13:52:30;21.80;80.90
23385;DHT22;11865;45.394;10.978;2022-09-20T13:54:57;21.80;81.30
23385;DHT22;11865;45.394;10.978;2022-09-20T13:57:27;21.80;81.00
23385;DHT22;11865;45.394;10.978;2022-09-20T13:59:55;22.00;80.90
23385;DHT22;11865;45.394;10.978;2022-09-20T14:02:30;21.80;82.10
23385;DHT22;11865;45.394;10.978;2022-09-20T14:05:00;21.80;82.90
23385;DHT22;11865;45.394;10.978;2022-09-20T14:07:28;21.90;84.40
23385;DHT22;11865;45.394;10.978;2022-09-20T14:09:57;22.00;81.80
23385;DHT22;11865;45.394;10.978;2022-09-20T14:12:25;21.90;80.50
23385;DHT22;11865;45.394;10.978;2022-09-20T14:14:53;22.00;81.00
23385;DHT22;11865;45.394;10.978;2022-09-20T14:17:22;21.90;81.30
23385;DHT22;11865;45.394;10.978;2022-09-20T14:19:52;21.80;81.90
23385;DHT22;11865;45.394;10.978;2022-09-20T14:22:26;21.90;80.80
23385;DHT22;11865;45.394;10.978;2022-09-20T14:25:19;22.00;78.50
23385;DHT22;11865;45.394;10.978;2022-09-20T14:27:47;22.10;79.60
23385;DHT22;11865;45.394;10.978;2022-09-20T14:30:32;22.20;79.80
23385;DHT22;11865;45.394;10.978;2022-09-20T14:33:04;22.10;81.40
23385;DHT22;11865;45.394;10.978;2022-09-20T14:35:32;22.10;79.40
23385;DHT22;11865;45.394;10.978;2022-09-20T14:38:06;22.20;79.90
23385;DHT22;11865;45.394;10.978;2022-09-20T14:40:46;22.20;80.90
23385;DHT22;11865;45.394;10.978;2022-09-20T14:43:24;22.10;78.10
23385;DHT22;11865;45.394;10.978;2022-09-20T14:45:57;22.20;78.60
23385;DHT22;11865;45.394;10.978;2022-09-20T14:48:37;22.30;80.00
23385;DHT22;11865;45.394;10.978;2022-09-20T14:56:37;22.10;81.90
23385;DHT22;11865;45.394;10.978;2022-09-20T14:59:26;22.20;81.60
23385;DHT22;11865;45.394;10.978;2022-09-20T15:02:17;22.20;82.40
23385;DHT22;11865;45.394;10.978;2022-09-20T15:04:55;22.30;81.10
23385;DHT22;11865;45.394;10.978;2022-09-20T15:07:23;22.40;80.60
23385;DHT22;11865;45.394;10.978;2022-09-20T15:09:50;22.20;84.40
23385;DHT22;11865;45.394;10.978;2022-09-20T15:12:19;22.30;83.90
23385;DHT22;11865;45.394;10.978;2022-09-20T15:14:47;22.30;81.80
23385;DHT22;11865;45.394;10.978;2022-09-20T15:17:19;22.10;81.30
23385;DHT22;11865;45.394;10.978;2022-09-20T15:19:47;22.00;81.50
23385;DHT22;11865;45.394;10.978;2022-09-20T15:22:15;22.10;81.30
23385;DHT22;11865;45.394;10.978;2022-09-20T15:24:43;22.10;84.00
23385;DHT22;11865;45.394;10.978;2022-09-20T15:27:11;22.20;81.60
23385;DHT22;11865;45.394;10.978;2022-09-20T15:29:39;22.20;82.60
23385;DHT22;11865;45.394;10.978;2022-09-20T15:32:09;22.20;84.50
23385;DHT22;11865;45.394;10.978;2022-09-20T15:34:37;22.20;84.20
23385;DHT22;11865;45.394;10.978;2022-09-20T15:37:04;22.20;80.80
23385;DHT22;11865;45.394;10.978;2022-09-20T15:39:32;22.30;80.80
23385;DHT22;11865;45.394;10.978;2022-09-20T15:42:00;22.10;82.70
23385;DHT22;11865;45.394;10.978;2022-09-20T15:44:28;21.80;83.80
23385;DHT22;11865;45.394;10.978;2022-09-20T15:46:56;21.70;83.10
23385;DHT22;11865;45.394;10.978;2022-09-20T15:49:23;21.70;82.50
23385;DHT22;11865;45.394;10.978;2022-09-20T15:51:51;21.80;83.80
23385;DHT22;11865;45.394;10.978;2022-09-20T15:54:18;21.80;83.40
23385;DHT22;11865;45.394;10.978;2022-09-20T15:56:46;21.70;83.10
23385;DHT22;11865;45.394;10.978;2022-09-20T15:59:13;21.80;80.00
23385;DHT22;11865;45.394;10.978;2022-09-20T16:01:43;21.90;80.50
23385;DHT22;11865;45.394;10.978;2022-09-20T16:04:14;21.90;80.50
23385;DHT22;11865;45.394;10.978;2022-09-20T16:06:43;22.00;81.80
23385;DHT22;11865;45.394;10.978;2022-09-20T16:09:11;22.00;81.30
23385;DHT22;11865;45.394;10.978;2022-09-20T16:11:39;22.00;81.40
23385;DHT22;11865;45.394;10.978;2022-09-20T16:14:07;22.00;80.90
23385;DHT22;11865;45.394;10.978;2022-09-20T16:16:34;22.10;80.90
23385;DHT22;11865;45.394;10.978;2022-09-20T16:19:08;22.10;81.30
23385;DHT22;11865;45.394;10.978;2022-09-20T16:21:49;22.00;80.60
23385;DHT22;11865;45.394;10.978;2022-09-20T16:24:27;21.90;81.20
23385;DHT22;11865;45.394;10.978;2022-09-20T16:26:55;21.90;81.30
23385;DHT22;11865;45.394;10.978;2022-09-20T16:29:23;21.90;81.70
23385;DHT22;11865;45.394;10.978;2022-09-20T16:31:53;21.80;83.80
23385;DHT22;11865;45.394;10.978;2022-09-20T16:34:34;21.60;85.60
23385;DHT22;11865;45.394;10.978;2022-09-20T16:37:04;21.30;86.50
23385;DHT22;11865;45.394;10.978;2022-09-20T16:39:33;21.20;84.10
23385;DHT22;11865;45.394;10.978;2022-09-20T16:42:05;21.30;84.40
23385;DHT22;11865;45.394;10.978;2022-09-20T16:44:37;21.50;83.90
23385;DHT22;11865;45.394;10.978;2022-09-20T16:47:07;21.30;84.80
23385;DHT22;11865;45.394;10.978;2022-09-20T16:49:35;21.30;84.80
23385;DHT22;11865;45.394;10.978;2022-09-20T16:52:04;21.30;85.20
23385;DHT22;11865;45.394;10.978;2022-09-20T16:54:32;21.20;85.90
23385;DHT22;11865;45.394;10.978;2022-09-20T16:57:00;21.20;85.60
23385;DHT22;11865;45.394;10.978;2022-09-20T16:59:27;21.10;86.40
23385;DHT22;11865;45.394;10.978;2022-09-20T17:01:55;21.00;86.00
23385;DHT22;11865;45.394;10.978;2022-09-20T17:04:23;21.00;86.50
23385;DHT22;11865;45.394;10.978;2022-09-20T17:06:50;20.90;87.40
23385;DHT22;11865;45.394;10.978;2022-09-20T17:09:18;20.90;86.90
23385;DHT22;11865;45.394;10.978;2022-09-20T17:11:47;20.80;87.50
23385;DHT22;11865;45.394;10.978;2022-09-20T17:14:18;20.70;87.90
23385;DHT22;11865;45.394;10.978;2022-09-20T17:16:47;20.70;88.10
23385;DHT22;11865;45.394;10.978;2022-09-20T17:19:17;20.60;88.10
23385;DHT22;11865;45.394;10.978;2022-09-20T17:21:46;20.50;88.60
23385;DHT22;11865;45.394;10.978;2022-09-20T17:24:20;20.40;89.10
23385;DHT22;11865;45.394;10.978;2022-09-20T17:26:48;20.40;89.00
23385;DHT22;11865;45.394;10.978;2022-09-20T17:29:17;20.40;89.10
23385;DHT22;11865;45.394;10.978;2022-09-20T17:31:48;20.30;89.10
23385;DHT22;11865;45.394;10.978;2022-09-20T17:34:22;20.30;90.00
23385;DHT22;11865;45.394;10.978;2022-09-20T17:36:51;20.10;91.00
23385;DHT22;11865;45.394;10.978;2022-09-20T17:39:20;20.00;91.60
23385;DHT22;11865;45.394;10.978;2022-09-20T17:41:48;19.80;92.10
23385;DHT22;11865;45.394;10.978;2022-09-20T17:44:17;19.80;92.40
23385;DHT22;11865;45.394;10.978;2022-09-20T17:46:46;19.70;92.60
23385;DHT22;11865;45.394;10.978;2022-09-20T17:49:18;19.60;92.80
23385;DHT22;11865;45.394;10.978;2022-09-20T17:51:51;19.60;93.10
23385;DHT22;11865;45.394;10.978;2022-09-20T17:54:19;19.50;93.20
23385;DHT22;11865;45.394;10.978;2022-09-20T17:56:49;19.50;93.50
23385;DHT22;11865;45.394;10.978;2022-09-20T17:59:18;19.50;93.60
23385;DHT22;11865;45.394;10.978;2022-09-20T18:01:48;19.40;93.90
23385;DHT22;11865;45.394;10.978;2022-09-20T18:04:17;19.30;94.00
23385;DHT22;11865;45.394;10.978;2022-09-20T18:06:49;19.30;94.20
23385;DHT22;11865;45.394;10.978;2022-09-20T18:09:24;19.20;94.30
23385;DHT22;11865;45.394;10.978;2022-09-20T18:11:53;19.20;94.40
23385;DHT22;11865;45.394;10.978;2022-09-20T18:14:25;19.20;94.50
23385;DHT22;11865;45.394;10.978;2022-09-20T18:16:55;19.10;94.80
23385;DHT22;11865;45.394;10.978;2022-09-20T18:19:24;19.10;94.90
23385;DHT22;11865;45.394;10.978;2022-09-20T18:22:02;19.10;94.90
23385;DHT22;11865;45.394;10.978;2022-09-20T18:24:30;19.00;95.20
23385;DHT22;11865;45.394;10.978;2022-09-20T18:26:58;19.00;95.20
23385;DHT22;11865;45.394;10.978;2022-09-20T18:29:27;18.90;95.30
23385;DHT22;11865;45.394;10.978;2022-09-20T18:31:55;18.90;95.50
23385;DHT22;11865;45.394;10.978;2022-09-20T18:34:25;18.90;95.30
23385;DHT22;11865;45.394;10.978;2022-09-20T18:36:59;18.90;95.20
23385;DHT22;11865;45.394;10.978;2022-09-20T18:39:29;18.80;95.20
23385;DHT22;11865;45.394;10.978;2022-09-20T18:41:59;18.80;95.00
23385;DHT22;11865;45.394;10.978;2022-09-20T18:44:26;18.90;94.90
23385;DHT22;11865;45.394;10.978;2022-09-20T18:46:58;18.80;94.70
23385;DHT22;11865;45.394;10.978;2022-09-20T18:49:30;18.80;94.70
23385;DHT22;11865;45.394;10.978;2022-09-20T18:51:57;18.80;94.80
23385;DHT22;11865;45.394;10.978;2022-09-20T18:54:25;18.70;94.70
23385;DHT22;11865;45.394;10.978;2022-09-20T18:56:56;18.70;94.80
23385;DHT22;11865;45.394;10.978;2022-09-20T18:59:25;18.70;94.70
23385;DHT22;11865;45.394;10.978;2022-09-20T19:02:11;18.70;94.70
23385;DHT22;11865;45.394;10.978;2022-09-20T19:05:22;18.70;94.90
23385;DHT22;11865;45.394;10.978;2022-09-20T19:26:58;18.40;95.00
23385;DHT22;11865;45.394;10.978;2022-09-20T19:29:27;18.30;94.90
23385;DHT22;11865;45.394;10.978;2022-09-20T19:31:58;18.30;94.90
23385;DHT22;11865;45.394;10.978;2022-09-20T19:34:27;18.30;94.90
23385;DHT22;11865;45.394;10.978;2022-09-20T19:40:00;18.30;95.00
23385;DHT22;11865;45.394;10.978;2022-09-20T19:42:42;18.20;95.10
23385;DHT22;11865;45.394;10.978;2022-09-20T19:48:11;18.10;95.00
23385;DHT22;11865;45.394;10.978;2022-09-20T19:50:49;18.00;95.00
23385;DHT22;11865;45.394;10.978;2022-09-20T19:53:19;18.00;95.00
23385;DHT22;11865;45.394;10.978;2022-09-20T19:55:53;18.00;95.20
23385;DHT22;11865;45.394;10.978;2022-09-20T19:58:22;18.00;95.20
23385;DHT22;11865;45.394;10.978;2022-09-20T20:00:50;17.90;95.20
23385;DHT22;11865;45.394;10.978;2022-09-20T20:03:18;18.00;95.30
23385;DHT22;11865;45.394;10.978;2022-09-20T20:06:06;17.90;95.30
23385;DHT22;11865;45.394;10.978;2022-09-20T20:08:41;17.90;95.20
23385;DHT22;11865;45.394;10.978;2022-09-20T20:19:50;17.90;95.00
23385;DHT22;11865;45.394;10.978;2022-09-20T20:28:17;17.80;95.00
23385;DHT22;11865;45.394;10.978;2022-09-20T20:30:45;17.70;95.00
23385;DHT22;11865;45.394;10.978;2022-09-20T20:33:14;17.80;95.00
23385;DHT22;11865;45.394;10.978;2022-09-20T20:35:41;17.80;95.00
23385;DHT22;11865;45.394;10.978;2022-09-20T20:38:09;17.70;95.10
23385;DHT22;11865;45.394;10.978;2022-09-20T20:40:37;17.70;95.10
23385;DHT22;11865;45.394;10.978;2022-09-20T20:43:07;17.70;95.10
23385;DHT22;11865;45.394;10.978;2022-09-20T20:45:35;17.60;95.10
23385;DHT22;11865;45.394;10.978;2022-09-20T20:48:04;17.60;95.00
23385;DHT22;11865;45.394;10.978;2022-09-20T20:50:32;17.60;95.10
23385;DHT22;11865;45.394;10.978;2022-09-20T20:53:00;17.50;95.20
23385;DHT22;11865;45.394;10.978;2022-09-20T20:55:27;17.50;95.20
23385;DHT22;11865;45.394;10.978;2022-09-20T20:57:55;17.50;95.30
23385;DHT22;11865;45.394;10.978;2022-09-20T21:00:26;17.50;95.30
23385;DHT22;11865;45.394;10.978;2022-09-20T21:03:00;17.50;95.30
23385;DHT22;11865;45.394;10.978;2022-09-20T21:05:28;17.50;95.30
23385;DHT22;11865;45.394;10.978;2022-09-20T21:07:56;17.40;95.20
23385;DHT22;11865;45.394;10.978;2022-09-20T21:10:24;17.40;95.20
23385;DHT22;11865;45.394;10.978;2022-09-20T21:12:54;17.40;95.30
23385;DHT22;11865;45.394;10.978;2022-09-20T21:15:22;17.40;95.30
23385;DHT22;11865;45.394;10.978;2022-09-20T21:17:50;17.40;95.30
23385;DHT22;11865;45.394;10.978;2022-09-20T21:20:19;17.40;95.30
23385;DHT22;11865;45.394;10.978;2022-09-20T21:22:47;17.30;95.30
23385;DHT22;11865;45.394;10.978;2022-09-20T21:25:15;17.30;95.30
23385;DHT22;11865;45.394;10.978;2022-09-20T21:27:42;17.30;95.20
23385;DHT22;11865;45.394;10.978;2022-09-20T21:30:10;17.30;95.20
23385;DHT22;11865;45.394;10.978;2022-09-20T21:32:37;17.30;95.20
23385;DHT22;11865;45.394;10.978;2022-09-20T21:35:05;17.30;95.10
23385;DHT22;11865;45.394;10.978;2022-09-20T21:37:33;17.30;95.20
23385;DHT22;11865;45.394;10.978;2022-09-20T21:40:00;17.30;95.30
23385;DHT22;11865;45.394;10.978;2022-09-20T21:42:28;17.30;95.30
23385;DHT22;11865;45.394;10.978;2022-09-20T21:44:55;17.30;95.20
23385;DHT22;11865;45.394;10.978;2022-09-20T21:47:23;17.30;95.10
23385;DHT22;11865;45.394;10.978;2022-09-20T21:49:50;17.40;95.00
23385;DHT22;11865;45.394;10.978;2022-09-20T21:52:17;17.40;95.00
23385;DHT22;11865;45.394;10.978;2022-09-20T21:54:45;17.40;94.90
23385;DHT22;11865;45.394;10.978;2022-09-20T21:57:13;17.40;94.90
23385;DHT22;11865;45.394;10.978;2022-09-20T21:59:40;17.50;94.80
23385;DHT22;11865;45.394;10.978;2022-09-20T22:02:08;17.40;94.80
23385;DHT22;11865;45.394;10.978;2022-09-20T22:04:35;17.50;94.80
23385;DHT22;11865;45.394;10.978;2022-09-20T22:07:03;17.50;94.80
23385;DHT22;11865;45.394;10.978;2022-09-20T22:09:30;17.50;94.70
23385;DHT22;11865;45.394;10.978;2022-09-20T22:11:58;17.60;94.70
23385;DHT22;11865;45.394;10.978;2022-09-20T22:14:26;17.60;94.60
23385;DHT22;11865;45.394;10.978;2022-09-20T22:16:53;17.50;94.70
23385;DHT22;11865;45.394;10.978;2022-09-20T22:19:20;17.50;94.80
23385;DHT22;11865;45.394;10.978;2022-09-20T22:21:49;17.50;94.90
23385;DHT22;11865;45.394;10.978;2022-09-20T22:24:17;17.40;94.80
23385;DHT22;11865;45.394;10.978;2022-09-20T22:26:47;17.40;95.00
23385;DHT22;11865;45.394;10.978;2022-09-20T22:29:16;17.30;94.90
23385;DHT22;11865;45.394;10.978;2022-09-20T22:31:45;17.30;95.00
23385;DHT22;11865;45.394;10.978;2022-09-20T22:34:15;17.30;95.00
23385;DHT22;11865;45.394;10.978;2022-09-20T22:36:44;17.30;95.20
23385;DHT22;11865;45.394;10.978;2022-09-20T22:39:12;17.30;95.10
23385;DHT22;11865;45.394;10.978;2022-09-20T22:41:40;17.40;95.00
23385;DHT22;11865;45.394;10.978;2022-09-20T22:44:09;17.30;95.00
23385;DHT22;11865;45.394;10.978;2022-09-20T22:46:37;17.40;95.00
23385;DHT22;11865;45.394;10.978;2022-09-20T22:49:05;17.40;94.90
23385;DHT22;11865;45.394;10.978;2022-09-20T22:51:34;17.50;95.30
23385;DHT22;11865;45.394;10.978;2022-09-20T22:54:10;17.50;94.80
23385;DHT22;11865;45.394;10.978;2022-09-20T22:56:38;17.50;94.70
23385;DHT22;11865;45.394;10.978;2022-09-20T22:59:10;17.60;94.70
23385;DHT22;11865;45.394;10.978;2022-09-20T23:01:40;17.60;94.70
23385;DHT22;11865;45.394;10.978;2022-09-20T23:04:14;17.60;94.70
23385;DHT22;11865;45.394;10.978;2022-09-20T23:06:48;17.70;94.70